Main page
METAR-TAF:

METAR-TAF

Airports :

Vladivostok International Airport

Vladivostok, Russia

latitude: 43-07N, longitude: 131-56E, elevation: 184 m

Current weather observation

The report was made 41 minutes ago, at 21:00 UTC
Wind 6 kt from the North/Northwest
Temperature -3°C
Humidity 93%
Pressure 1022 hPa
Visibility 10 km or more

METAR: UHWW 172100Z 33003MPS 9999 NSC M03/M04 Q1022 R25L/0///70 NOSIG RMK QFE765

Time: 07:41 (21:41 UTC)

Forecast

The report was made 16 minutes ago, at 21:25 UTC
Forecast valid from 17 at 21 UTC to 18 at 21 UTC
Wind 6 kt from the North
Visibility 10 km or more
Temporary
from 17 at 21 UTC to 18 at 09 UTC
Wind 19 kt from the North/Northwest
Becoming
from 18 at 11 UTC to 18 at 13 UTC
Wind 2 kt from variable directions
Visibility: 4000 m
haze

TAF: UHWW 172125Z 1721/1821 35003MPS 9999 NSC TEMPO 1721/1809 34010MPS BECMG 1811/1813 VRB01MPS 4000 HZ

Weather observations and forecasts of more than 4000 airports (METAR and TAF reports).

The available stations are represented by yellow and red dots on the map.

Hover mouse over dot to see the name of the station.

Then click to see weather observations and forecasts.

To change the map : click on the green buttons with a black cross to zoom in, on the green button with a dash to zoom out, or on the green arrows for adjacent maps.


METAR-TAF: